Time;durP1;ratioP1;P1;durP2;ratioP2;P2;SDS_P1;SDS_P2;PMS_P1;PMS_P2;Temp;Humidity;BMP_temperature;BMP_pressure;BME280_temperature;BME280_humidity;BME280_pressure;Samples;Min_cycle;Max_cycle;Signal;HPM_P1;HPM_P2
2022/07/04 00:02:25;;;;;;;4.27;1.60;;;;;;;;;;5246519;28;20086;-74
2022/07/04 00:04:57;;;;;;;5.23;1.87;;;;;;;;;;5227120;28;20044;-75
2022/07/04 00:07:28;;;;;;;3.87;1.70;;;;;;;;;;5247220;28;20021;-75
2022/07/04 00:09:59;;;;;;;7.32;1.88;;;;;;;;;;5228933;28;20033;-74
2022/07/04 00:12:30;;;;;;;5.60;1.73;;;;;;;;;;5246699;28;20100;-74
2022/07/04 00:15:02;;;;;;;3.67;1.97;;;;;;;;;;5245473;28;20017;-74
2022/07/04 00:17:33;;;;;;;4.33;1.80;;;;;;;;;;5246687;28;20017;-74
2022/07/04 00:20:06;;;;;;;4.60;1.77;;;;;;;;;;5246938;28;20021;-74
2022/07/04 00:22:37;;;;;;;3.87;2.07;;;;;;;;;;5246634;28;20032;-74
2022/07/04 00:25:08;;;;;;;6.73;2.13;;;;;;;;;;5248155;28;20039;-74
2022/07/04 00:27:39;;;;;;;4.13;1.97;;;;;;;;;;5247879;28;20078;-74
2022/07/04 00:30:11;;;;;;;6.57;2.43;;;;;;;;;;5230156;28;20034;-74
2022/07/04 00:32:42;;;;;;;5.80;1.60;;;;;;;;;;5247590;28;20025;-75
2022/07/04 00:35:13;;;;;;;5.20;1.70;;;;;;;;;;5248590;28;20432;-74
2022/07/04 00:37:44;;;;;;;3.43;1.60;;;;;;;;;;5229102;28;20108;-74
2022/07/04 00:40:15;;;;;;;4.77;1.70;;;;;;;;;;5247938;28;20473;-74
2022/07/04 00:42:46;;;;;;;4.23;1.83;;;;;;;;;;5248190;28;20338;-75
2022/07/04 00:45:19;;;;;;;3.57;1.70;;;;;;;;;;5248051;28;20040;-74
2022/07/04 00:47:50;;;;;;;3.67;1.80;;;;;;;;;;5252945;28;20102;-74
2022/07/04 00:50:21;;;;;;;4.05;2.05;;;;;;;;;;5248025;28;20554;-74
2022/07/04 00:52:53;;;;;;;5.63;2.27;;;;;;;;;;5247240;28;20047;-74
2022/07/04 00:55:24;;;;;;;7.30;2.30;;;;;;;;;;5224716;28;20014;-75
2022/07/04 00:57:55;;;;;;;4.17;1.80;;;;;;;;;;5247378;28;20049;-74
2022/07/04 01:00:26;;;;;;;10.63;2.30;;;;;;;;;;5229709;28;20019;-74
2022/07/04 01:02:58;;;;;;;4.70;1.70;;;;;;;;;;5247162;28;20049;-74
2022/07/04 01:05:29;;;;;;;4.50;1.90;;;;;;;;;;5225690;28;20025;-74
2022/07/04 01:08:00;;;;;;;6.20;2.40;;;;;;;;;;5232551;22;20460;-75
2022/07/04 01:10:32;;;;;;;6.40;2.30;;;;;;;;;;5216939;28;20025;-74
2022/07/04 01:13:03;;;;;;;6.57;2.83;;;;;;;;;;5185585;28;20070;-74
2022/07/04 01:15:34;;;;;;;4.45;2.17;;;;;;;;;;5185373;28;20048;-74
2022/07/04 01:18:05;;;;;;;5.30;2.30;;;;;;;;;;5185341;28;20057;-74
2022/07/04 01:20:37;;;;;;;5.10;2.27;;;;;;;;;;5185111;28;20521;-74
2022/07/04 01:23:08;;;;;;;5.10;2.60;;;;;;;;;;5185878;28;20103;-74
2022/07/04 01:25:39;;;;;;;5.93;2.07;;;;;;;;;;5190578;28;20133;-74
2022/07/04 01:28:10;;;;;;;5.73;2.00;;;;;;;;;;5191073;28;20039;-74
2022/07/04 01:30:42;;;;;;;9.53;2.10;;;;;;;;;;5192294;28;20504;-74
2022/07/04 01:33:13;;;;;;;5.70;2.23;;;;;;;;;;5188811;28;20531;-74
2022/07/04 01:35:45;;;;;;;6.07;2.37;;;;;;;;;;5191368;28;20025;-74
2022/07/04 01:38:16;;;;;;;4.93;1.97;;;;;;;;;;5191313;28;20026;-74
2022/07/04 01:40:47;;;;;;;5.53;2.27;;;;;;;;;;5190888;28;20029;-74
2022/07/04 01:43:19;;;;;;;6.07;2.07;;;;;;;;;;5187479;28;20456;-74
2022/07/04 01:45:50;;;;;;;7.60;2.30;;;;;;;;;;5191109;28;20022;-74
2022/07/04 01:48:21;;;;;;;4.67;2.30;;;;;;;;;;5189346;28;20053;-74
2022/07/04 01:50:52;;;;;;;6.80;2.53;;;;;;;;;;5189718;28;20029;-73
2022/07/04 01:53:23;;;;;;;5.07;2.17;;;;;;;;;;5191720;28;20026;-73
2022/07/04 01:55:54;;;;;;;6.77;2.33;;;;;;;;;;5184156;28;20023;-75
2022/07/04 01:58:25;;;;;;;5.60;2.27;;;;;;;;;;5187632;28;20033;-74
2022/07/04 02:03:47;;;;;;;5.30;2.33;;;;;;;;;;5191016;28;20038;-74
2022/07/04 02:06:18;;;;;;;6.97;2.63;;;;;;;;;;5189837;28;20022;-74
2022/07/04 02:14:30;;;;;;;6.90;2.97;;;;;;;;;;5189650;28;20878;-73
2022/07/04 02:17:01;;;;;;;6.30;2.30;;;;;;;;;;5189454;28;20117;-73
2022/07/04 02:19:32;;;;;;;4.53;2.30;;;;;;;;;;5189968;28;20020;-73
2022/07/04 02:22:04;;;;;;;7.15;1.98;;;;;;;;;;5191002;28;20033;-74
2022/07/04 02:24:35;;;;;;;4.53;2.40;;;;;;;;;;5186308;28;20057;-74
2022/07/04 02:27:06;;;;;;;9.47;2.73;;;;;;;;;;5187820;28;20065;-73
2022/07/04 02:29:38;;;;;;;3.83;2.30;;;;;;;;;;5201568;28;20034;-74
2022/07/04 02:32:09;;;;;;;8.33;2.43;;;;;;;;;;5187956;28;20023;-73
2022/07/04 02:34:40;;;;;;;4.87;2.73;;;;;;;;;;5189138;28;20034;-73
2022/07/04 02:37:12;;;;;;;9.17;2.53;;;;;;;;;;5183925;28;20046;-74
2022/07/04 02:39:43;;;;;;;4.83;2.57;;;;;;;;;;5196256;28;20076;-73
2022/07/04 02:42:14;;;;;;;5.43;2.97;;;;;;;;;;5198617;28;20121;-73
2022/07/04 02:44:45;;;;;;;4.30;2.50;;;;;;;;;;5198750;28;20464;-73
2022/07/04 02:47:16;;;;;;;9.10;2.53;;;;;;;;;;5199011;28;20437;-73
2022/07/04 02:49:47;;;;;;;8.85;3.00;;;;;;;;;;5206729;28;20132;-73
2022/07/04 02:52:19;;;;;;;4.73;2.73;;;;;;;;;;5207448;28;20115;-73
2022/07/04 02:54:52;;;;;;;7.10;3.30;;;;;;;;;;5207742;28;20021;-73
2022/07/04 02:57:23;;;;;;;7.30;2.87;;;;;;;;;;5207180;28;20021;-75
2022/07/04 02:59:54;;;;;;;4.13;2.50;;;;;;;;;;5207702;28;20486;-74
2022/07/04 03:02:25;;;;;;;11.48;3.60;;;;;;;;;;5209347;28;20037;-74
2022/07/04 03:04:57;;;;;;;6.60;3.00;;;;;;;;;;5207024;28;20029;-74
2022/07/04 03:07:28;;;;;;;6.70;2.80;;;;;;;;;;5206531;28;20476;-74
2022/07/04 03:09:59;;;;;;;9.63;3.00;;;;;;;;;;5206189;28;20037;-74
2022/07/04 03:12:30;;;;;;;8.60;3.03;;;;;;;;;;5208530;28;20037;-74
2022/07/04 03:15:01;;;;;;;9.00;3.30;;;;;;;;;;5207444;28;20057;-74
2022/07/04 03:17:33;;;;;;;9.10;3.37;;;;;;;;;;5207794;28;20022;-74
2022/07/04 03:20:04;;;;;;;7.13;3.17;;;;;;;;;;5208788;28;20014;-73
2022/07/04 03:22:35;;;;;;;8.27;3.40;;;;;;;;;;5200125;28;20030;-73
2022/07/04 03:25:06;;;;;;;6.90;3.30;;;;;;;;;;5189977;28;20034;-74
2022/07/04 03:27:37;;;;;;;4.27;2.63;;;;;;;;;;5204832;28;20014;-74
2022/07/04 03:30:09;;;;;;;5.20;3.07;;;;;;;;;;5207519;28;20076;-73
2022/07/04 03:32:40;;;;;;;6.77;3.03;;;;;;;;;;5207076;28;20121;-74
2022/07/04 03:35:11;;;;;;;5.33;2.87;;;;;;;;;;5202415;28;20026;-74
2022/07/04 03:37:42;;;;;;;5.40;3.15;;;;;;;;;;5204926;28;20113;-74
2022/07/04 03:40:13;;;;;;;7.73;2.97;;;;;;;;;;5202237;28;20018;-73
2022/07/04 03:42:45;;;;;;;6.20;3.00;;;;;;;;;;5199732;28;20483;-73
2022/07/04 03:45:16;;;;;;;5.90;2.90;;;;;;;;;;5200461;28;20030;-74
2022/07/04 03:47:47;;;;;;;6.95;2.72;;;;;;;;;;5192785;28;20072;-74
2022/07/04 03:50:18;;;;;;;6.13;2.90;;;;;;;;;;5205479;28;20025;-74
2022/07/04 03:52:50;;;;;;;8.67;3.20;;;;;;;;;;5197730;28;20072;-74
2022/07/04 03:55:21;;;;;;;7.83;3.50;;;;;;;;;;5198471;28;20033;-74
2022/07/04 03:57:52;;;;;;;6.97;3.60;;;;;;;;;;5217676;28;20026;-74
2022/07/04 04:00:23;;;;;;;7.40;3.77;;;;;;;;;;5193173;28;20027;-73
2022/07/04 04:02:55;;;;;;;6.37;2.67;;;;;;;;;;5217944;28;20034;-74
2022/07/04 04:05:26;;;;;;;7.97;3.45;;;;;;;;;;5199248;28;20022;-73
2022/07/04 04:07:58;;;;;;;5.53;2.90;;;;;;;;;;5211714;28;20053;-73
2022/07/04 04:10:32;;;;;;;7.20;3.57;;;;;;;;;;5205302;28;20033;-74
2022/07/04 04:13:04;;;;;;;6.15;2.88;;;;;;;;;;5207481;28;20473;-74
2022/07/04 04:15:35;;;;;;;5.90;3.03;;;;;;;;;;5204905;28;20133;-74
2022/07/04 04:18:06;;;;;;;7.57;3.13;;;;;;;;;;5205765;28;20030;-73
2022/07/04 04:20:37;;;;;;;6.37;4.00;;;;;;;;;;5207428;28;20056;-74
2022/07/04 04:23:08;;;;;;;5.32;2.63;;;;;;;;;;5196089;28;20042;-74
2022/07/04 04:25:39;;;;;;;7.63;3.47;;;;;;;;;;5187780;28;20029;-75
2022/07/04 04:28:11;;;;;;;11.83;5.13;;;;;;;;;;5191713;28;20054;-74
2022/07/04 04:30:42;;;;;;;7.53;5.50;;;;;;;;;;5205643;28;20018;-74
2022/07/04 04:33:13;;;;;;;9.07;5.53;;;;;;;;;;5208407;28;20789;-74
2022/07/04 04:35:44;;;;;;;12.40;6.10;;;;;;;;;;5206500;28;20068;-74
2022/07/04 04:38:15;;;;;;;11.67;5.93;;;;;;;;;;5205058;28;20026;-74
2022/07/04 04:40:47;;;;;;;10.00;4.83;;;;;;;;;;5209044;28;20071;-76
2022/07/04 04:43:18;;;;;;;9.80;4.10;;;;;;;;;;5208329;28;20030;-74
2022/07/04 04:45:49;;;;;;;10.10;4.23;;;;;;;;;;5201608;28;20018;-75
2022/07/04 04:48:20;;;;;;;10.27;4.97;;;;;;;;;;5205656;28;20029;-75
2022/07/04 04:50:51;;;;;;;13.20;4.97;;;;;;;;;;5206540;28;20021;-75
2022/07/04 04:53:25;;;;;;;9.90;4.70;;;;;;;;;;5202508;28;20076;-75
2022/07/04 04:55:56;;;;;;;8.77;4.53;;;;;;;;;;5205492;28;20052;-75
2022/07/04 04:58:27;;;;;;;7.07;3.90;;;;;;;;;;5206378;28;20030;-75
2022/07/04 05:00:59;;;;;;;6.20;4.00;;;;;;;;;;5209374;28;20006;-75
2022/07/04 05:03:30;;;;;;;11.47;4.63;;;;;;;;;;5210478;28;20129;-75
2022/07/04 05:06:01;;;;;;;9.30;4.57;;;;;;;;;;5207705;28;20026;-74
2022/07/04 05:08:32;;;;;;;9.73;4.23;;;;;;;;;;5210977;28;20152;-74
2022/07/04 05:11:03;;;;;;;7.07;4.23;;;;;;;;;;5196220;28;20057;-74
2022/07/04 05:13:34;;;;;;;6.88;3.92;;;;;;;;;;5192210;28;20051;-75
2022/07/04 05:16:06;;;;;;;10.97;4.13;;;;;;;;;;5198824;28;20029;-74
2022/07/04 05:18:37;;;;;;;8.63;4.13;;;;;;;;;;5206192;28;20086;-75
2022/07/04 05:21:08;;;;;;;9.43;3.77;;;;;;;;;;5190903;28;20109;-74
2022/07/04 05:23:39;;;;;;;11.63;4.38;;;;;;;;;;5192290;28;20034;-74
2022/07/04 05:26:10;;;;;;;8.17;3.67;;;;;;;;;;5192668;28;20033;-75
2022/07/04 05:28:41;;;;;;;11.90;4.07;;;;;;;;;;5198236;28;20026;-74
2022/07/04 05:31:13;;;;;;;15.80;5.50;;;;;;;;;;5208019;28;20641;-74
2022/07/04 05:33:44;;;;;;;8.80;4.33;;;;;;;;;;5193710;28;20037;-74
2022/07/04 05:36:15;;;;;;;9.83;3.87;;;;;;;;;;5198214;28;20021;-74
2022/07/04 05:38:46;;;;;;;10.83;4.10;;;;;;;;;;5190305;28;20443;-74
2022/07/04 05:41:17;;;;;;;11.82;3.85;;;;;;;;;;5190972;28;20101;-74
2022/07/04 05:43:49;;;;;;;11.43;3.43;;;;;;;;;;5190481;28;20061;-74
2022/07/04 05:46:20;;;;;;;11.20;3.90;;;;;;;;;;5189858;28;20018;-75
2022/07/04 05:48:51;;;;;;;9.23;3.53;;;;;;;;;;5190608;28;20021;-74
2022/07/04 05:51:22;;;;;;;9.70;3.70;;;;;;;;;;5189359;28;20467;-74
2022/07/04 05:53:54;;;;;;;8.20;3.33;;;;;;;;;;5189702;28;20026;-74
2022/07/04 05:56:25;;;;;;;11.53;3.70;;;;;;;;;;5188481;28;20133;-75
2022/07/04 05:58:56;;;;;;;10.90;3.92;;;;;;;;;;5193521;28;20104;-77
2022/07/04 06:01:27;;;;;;;9.40;3.27;;;;;;;;;;5189817;28;20019;-76
2022/07/04 06:03:58;;;;;;;13.83;4.03;;;;;;;;;;5189499;28;20042;-76
2022/07/04 06:06:30;;;;;;;9.73;3.50;;;;;;;;;;5187596;28;20026;-75
2022/07/04 06:09:02;;;;;;;7.70;3.03;;;;;;;;;;5189209;28;20076;-75
2022/07/04 06:11:34;;;;;;;8.57;3.43;;;;;;;;;;5190519;28;20037;-75
2022/07/04 06:14:05;;;;;;;6.87;3.33;;;;;;;;;;5189959;28;20018;-75
2022/07/04 06:16:37;;;;;;;10.33;3.83;;;;;;;;;;5189661;28;20014;-75
2022/07/04 06:19:08;;;;;;;8.80;4.30;;;;;;;;;;5201000;28;20041;-76
2022/07/04 06:21:39;;;;;;;6.73;4.10;;;;;;;;;;5194638;28;20065;-75
2022/07/04 06:24:10;;;;;;;12.30;4.32;;;;;;;;;;5197810;28;20030;-74
2022/07/04 06:26:42;;;;;;;8.33;3.23;;;;;;;;;;5191283;28;20026;-74
2022/07/04 06:29:13;;;;;;;6.97;3.23;;;;;;;;;;5188987;28;20042;-75
2022/07/04 06:31:44;;;;;;;8.63;4.13;;;;;;;;;;5188563;28;20668;-74
2022/07/04 06:37:05;;;;;;;8.30;3.53;;;;;;;;;;5187462;28;20066;-73
2022/07/04 06:39:36;;;;;;;10.98;4.45;;;;;;;;;;5182935;28;20046;-78
2022/07/04 06:42:07;;;;;;;8.07;2.90;;;;;;;;;;5176797;28;20030;-79
2022/07/04 06:44:38;;;;;;;5.67;3.20;;;;;;;;;;5169986;28;20049;-77
2022/07/04 06:47:09;;;;;;;8.70;2.87;;;;;;;;;;5174500;28;20026;-78
2022/07/04 06:49:41;;;;;;;12.32;3.33;;;;;;;;;;5212152;28;20026;-77
2022/07/04 06:52:12;;;;;;;7.77;2.80;;;;;;;;;;5184075;28;20054;-77
2022/07/04 06:54:43;;;;;;;8.37;3.40;;;;;;;;;;5180281;28;20653;-78
2022/07/04 06:57:14;;;;;;;8.77;2.73;;;;;;;;;;5183795;28;20747;-78
2022/07/04 06:59:45;;;;;;;8.55;2.88;;;;;;;;;;5195927;28;20032;-77
2022/07/04 07:02:18;;;;;;;7.70;3.10;;;;;;;;;;5186166;28;20019;-77
2022/07/04 07:04:49;;;;;;;9.43;3.47;;;;;;;;;;5181392;28;20027;-78
2022/07/04 07:07:20;;;;;;;9.07;2.57;;;;;;;;;;5179917;28;20068;-78
2022/07/04 07:09:51;;;;;;;7.63;2.20;;;;;;;;;;5181915;28;20070;-77
2022/07/04 07:12:22;;;;;;;6.27;2.63;;;;;;;;;;5186655;28;20022;-77
2022/07/04 07:14:54;;;;;;;6.03;2.50;;;;;;;;;;5183294;28;20019;-78
2022/07/04 07:17:26;;;;;;;8.50;2.90;;;;;;;;;;5178872;28;20101;-77
2022/07/04 07:19:57;;;;;;;9.40;2.63;;;;;;;;;;5185719;28;20026;-78
2022/07/04 07:22:28;;;;;;;9.37;2.97;;;;;;;;;;5185330;28;20018;-77
2022/07/04 07:24:59;;;;;;;8.47;2.70;;;;;;;;;;5182172;28;20470;-77
2022/07/04 07:27:30;;;;;;;7.06;2.96;;;;;;;;;;5184291;28;20539;-76
2022/07/04 07:30:03;;;;;;;9.03;2.40;;;;;;;;;;5186034;28;20658;-77
2022/07/04 07:32:34;;;;;;;9.33;3.17;;;;;;;;;;5186421;28;20034;-77
2022/07/04 07:35:05;;;;;;;6.37;2.57;;;;;;;;;;5185720;28;20073;-78
2022/07/04 07:37:36;;;;;;;4.50;1.93;;;;;;;;;;5183419;28;20034;-78
2022/07/04 07:40:08;;;;;;;9.00;2.76;;;;;;;;;;5185902;28;20036;-77
2022/07/04 07:42:39;;;;;;;3.78;1.88;;;;;;;;;;5186590;28;20039;-77
2022/07/04 07:45:11;;;;;;;5.04;1.72;;;;;;;;;;5184120;28;20572;-77
2022/07/04 07:47:42;;;;;;;5.97;1.75;;;;;;;;;;5179356;28;20615;-77
2022/07/04 07:50:13;;;;;;;7.15;1.60;;;;;;;;;;5184279;28;20137;-76
2022/07/04 07:52:44;;;;;;;7.97;1.73;;;;;;;;;;5184748;28;20092;-77
2022/07/04 07:55:15;;;;;;;5.96;1.56;;;;;;;;;;5186558;28;20102;-77
2022/07/04 07:57:46;;;;;;;7.98;2.64;;;;;;;;;;5183447;28;20077;-76
2022/07/04 08:00:17;;;;;;;5.18;1.50;;;;;;;;;;5185529;28;20030;-77
2022/07/04 08:05:38;;;;;;;7.18;1.83;;;;;;;;;;5185186;28;20023;-77
2022/07/04 08:08:10;;;;;;;2.65;1.10;;;;;;;;;;5183500;28;20493;-73
2022/07/04 08:10:41;;;;;;;3.92;1.40;;;;;;;;;;5184867;28;20096;-71
2022/07/04 08:13:12;;;;;;;5.00;1.30;;;;;;;;;;5186916;28;20042;-73
2022/07/04 08:15:43;;;;;;;4.80;1.40;;;;;;;;;;5185422;28;20028;-73
2022/07/04 08:18:16;;;;;;;4.70;1.55;;;;;;;;;;5180104;28;20360;-73
2022/07/04 08:20:47;;;;;;;4.75;1.67;;;;;;;;;;5186065;28;20025;-73
2022/07/04 08:23:19;;;;;;;6.63;1.30;;;;;;;;;;5186000;28;20053;-74
2022/07/04 08:25:50;;;;;;;3.26;1.40;;;;;;;;;;5199141;28;20118;-74
2022/07/04 08:28:21;;;;;;;3.20;1.30;;;;;;;;;;5179167;28;20054;-75
2022/07/04 08:30:52;;;;;;;5.47;1.17;;;;;;;;;;5184516;28;20015;-75
2022/07/04 08:33:24;;;;;;;3.63;1.33;;;;;;;;;;5187060;28;20015;-75
2022/07/04 08:35:56;;;;;;;4.10;1.40;;;;;;;;;;5219408;28;20022;-75
2022/07/04 08:38:28;;;;;;;3.05;1.05;;;;;;;;;;5184208;28;20552;-74
2022/07/04 08:41:01;;;;;;;6.32;1.45;;;;;;;;;;5189330;28;20176;-75
2022/07/04 08:43:33;;;;;;;;;;;;;;;;;;5192275;28;20023;-74
2022/07/04 08:46:05;;;;;;;4.00;1.13;;;;;;;;;;5203363;28;19969;-74
2022/07/04 08:48:37;;;;;;;3.28;0.95;;;;;;;;;;5188006;28;20029;-74
2022/07/04 08:51:16;;;;;;;5.00;1.57;;;;;;;;;;5172730;28;20026;-75
2022/07/04 08:53:50;;;;;;;6.05;1.50;;;;;;;;;;5180070;28;20022;-74
2022/07/04 08:59:13;;;;;;;3.42;1.02;;;;;;;;;;5181881;28;20034;-75
2022/07/04 09:01:44;;;;;;;4.43;1.13;;;;;;;;;;5189705;28;20014;-75
2022/07/04 09:04:16;;;;;;;2.25;1.10;;;;;;;;;;5189243;28;20045;-76
2022/07/04 09:06:47;;;;;;;5.07;1.13;;;;;;;;;;5181201;28;20042;-77
2022/07/04 09:09:18;;;;;;;5.90;1.38;;;;;;;;;;5189419;28;20052;-77
2022/07/04 09:11:49;;;;;;;6.40;2.00;;;;;;;;;;5189018;28;20065;-76
2022/07/04 09:14:21;;;;;;;4.68;1.35;;;;;;;;;;5189171;28;20092;-75
2022/07/04 09:16:53;;;;;;;2.83;1.13;;;;;;;;;;5186310;28;20022;-76
2022/07/04 09:19:25;;;;;;;3.13;1.20;;;;;;;;;;5189318;28;20378;-78
2022/07/04 09:21:56;;;;;;;3.97;1.27;;;;;;;;;;5187821;28;20045;-76
2022/07/04 09:24:45;;;;;;;3.58;1.05;;;;;;;;;;5189055;28;20129;-75
2022/07/04 09:27:29;;;;;;;5.50;1.70;;;;;;;;;;5179423;28;20022;-75
2022/07/04 09:30:00;;;;;;;4.05;1.38;;;;;;;;;;5219439;28;20420;-75
2022/07/04 09:32:41;;;;;;;6.85;1.38;;;;;;;;;;5188806;28;20087;-77
2022/07/04 09:35:16;;;;;;;7.72;1.33;;;;;;;;;;5178737;28;20022;-76
2022/07/04 09:37:50;;;;;;;4.15;1.10;;;;;;;;;;5198578;28;20045;-75
2022/07/04 09:40:22;;;;;;;4.85;0.90;;;;;;;;;;5186694;28;20025;-76
2022/07/04 09:42:54;;;;;;;3.20;1.05;;;;;;;;;;5187856;28;20081;-75
2022/07/04 09:45:27;;;;;;;2.30;0.70;;;;;;;;;;5187609;28;20473;-75
2022/07/04 09:47:59;;;;;;;5.57;1.52;;;;;;;;;;5179499;28;20025;-75
2022/07/04 09:50:30;;;;;;;4.03;1.10;;;;;;;;;;5187097;28;20029;-75
2022/07/04 09:53:02;;;;;;;5.75;1.23;;;;;;;;;;5217842;28;20370;-75
2022/07/04 09:55:37;;;;;;;2.10;0.73;;;;;;;;;;5187968;28;20025;-75
2022/07/04 09:58:09;;;;;;;5.88;1.67;;;;;;;;;;5180100;28;20113;-75
2022/07/04 10:00:45;;;;;;;3.80;1.10;;;;;;;;;;5187791;28;20372;-75
2022/07/04 10:03:20;;;;;;;5.43;1.30;;;;;;;;;;5187674;28;20036;-76
2022/07/04 10:06:11;;;;;;;4.20;1.30;;;;;;;;;;5185177;28;20046;-76
2022/07/04 10:08:43;;;;;;;3.67;1.20;;;;;;;;;;5184365;28;20634;-76
2022/07/04 10:11:14;;;;;;;8.73;1.50;;;;;;;;;;5188411;28;20019;-76
2022/07/04 10:13:46;;;;;;;2.75;1.20;;;;;;;;;;5186907;28;20018;-76
2022/07/04 10:16:17;;;;;;;4.95;1.75;;;;;;;;;;5186385;28;20385;-77
2022/07/04 10:18:49;;;;;;;6.20;1.30;;;;;;;;;;5187133;28;20044;-77
2022/07/04 10:21:20;;;;;;;4.45;1.33;;;;;;;;;;5187930;28;20496;-77
2022/07/04 10:23:52;;;;;;;2.78;1.38;;;;;;;;;;5188043;28;20037;-76
2022/07/04 10:26:23;;;;;;;3.88;1.10;;;;;;;;;;5185401;28;20018;-76
2022/07/04 10:28:55;;;;;;;5.40;1.15;;;;;;;;;;5187050;28;20370;-75
2022/07/04 10:31:27;;;;;;;6.43;1.40;;;;;;;;;;5189188;28;20480;-77
2022/07/04 10:33:59;;;;;;;5.22;2.20;;;;;;;;;;5187521;28;20026;-77
2022/07/04 10:36:31;;;;;;;3.72;1.30;;;;;;;;;;5184442;28;20037;-78
2022/07/04 10:39:03;;;;;;;6.60;1.70;;;;;;;;;;5186458;28;20030;-78
2022/07/04 10:41:34;;;;;;;3.88;1.15;;;;;;;;;;5186991;28;20018;-78
2022/07/04 10:44:14;;;;;;;4.05;1.23;;;;;;;;;;5186249;28;20069;-78
2022/07/04 10:46:47;;;;;;;4.05;1.15;;;;;;;;;;5178729;28;20023;-78
2022/07/04 10:49:19;;;;;;;5.15;0.90;;;;;;;;;;5186949;28;20073;-77
2022/07/04 10:51:51;;;;;;;4.65;1.60;;;;;;;;;;5185997;28;20022;-78
2022/07/04 10:54:29;;;;;;;7.03;1.85;;;;;;;;;;5187563;28;20443;-77
2022/07/04 10:57:17;;;;;;;4.78;1.52;;;;;;;;;;5183226;28;20019;-77
2022/07/04 10:59:54;;;;;;;4.78;1.35;;;;;;;;;;5187430;28;20073;-76
2022/07/04 11:02:25;;;;;;;4.00;1.08;;;;;;;;;;5219395;28;20023;-77
2022/07/04 11:05:09;;;;;;;5.65;1.40;;;;;;;;;;5185010;28;20077;-77
2022/07/04 11:07:40;;;;;;;4.70;1.30;;;;;;;;;;5180586;28;20117;-77
2022/07/04 11:10:12;;;;;;;8.92;1.82;;;;;;;;;;5186384;28;20156;-78
2022/07/04 11:12:55;;;;;;;3.70;1.20;;;;;;;;;;5185940;28;20560;-77
2022/07/04 11:15:29;;;;;;;5.28;1.00;;;;;;;;;;5187000;28;20378;-77
2022/07/04 11:18:10;;;;;;;4.68;1.15;;;;;;;26.94;34.76;101921.53;5315453;27;20397;-73
2022/07/04 11:20:45;;;;;;;2.22;0.82;;;;;;;27.03;36.27;101917.84;5325142;27;20089;-73
2022/07/04 11:23:21;;;;;;;4.82;1.00;;;;;;;27.35;35.35;101930.41;5309035;28;20016;-74
2022/07/04 11:25:55;;;;;;;3.72;1.10;;;;;;;27.26;36.03;101926.94;5310136;28;20379;-74
2022/07/04 11:28:32;;;;;;;4.93;1.40;;;;;;;27.08;34.28;101911.91;5306307;28;20024;-74
2022/07/04 11:31:03;;;;;;;4.78;1.15;;;;;;;26.63;37.08;101903.53;5309673;28;20024;-74
2022/07/04 11:33:36;;;;;;;3.45;1.30;;;;;;;26.70;35.31;101910.75;5310248;28;20031;-74
2022/07/04 11:36:10;;;;;;;2.33;1.10;;;;;;;26.88;35.17;101908.81;5308485;28;20051;-74
2022/07/04 11:38:55;;;;;;;6.40;1.30;;;;;;;26.82;35.17;101913.03;5307257;28;20407;-74
2022/07/04 11:47:17;;;;;;;4.90;1.70;;;;;;;26.12;37.57;101904.63;5293832;28;20063;-75
2022/07/04 11:49:53;;;;;;;11.27;2.13;;;;;;;26.19;37.70;101900.28;5309500;28;20023;-73
2022/07/04 11:52:26;;;;;;;4.93;2.20;;;;;;;26.23;38.78;101898.94;5284561;28;20027;-73
2022/07/04 11:54:58;;;;;;;6.72;1.90;;;;;;;26.55;40.11;101902.53;5286503;28;20016;-74
2022/07/04 11:57:37;;;;;;;8.05;2.47;;;;;;;26.52;39.62;101899.38;5284675;28;20527;-74
2022/07/04 12:00:11;;;;;;;6.65;2.05;;;;;;;26.54;37.28;101895.50;5284372;28;20460;-75
2022/07/04 12:02:44;;;;;;;3.08;1.60;;;;;;;26.89;35.26;101902.41;5286962;28;20039;-75
2022/07/04 12:05:17;;;;;;;4.67;1.93;;;;;;;27.01;35.83;101895.63;5285962;28;20062;-76
2022/07/04 12:07:49;;;;;;;5.50;1.67;;;;;;;27.13;36.03;101897.94;5281053;28;20285;-75
2022/07/04 12:10:24;;;;;;;8.57;1.98;;;;;;;26.85;36.16;101885.78;5286554;28;20024;-75
2022/07/04 12:13:02;;;;;;;5.18;1.77;;;;;;;27.01;36.95;101895.63;5287511;28;20020;-75
2022/07/04 12:15:37;;;;;;;6.70;2.00;;;;;;;26.79;35.88;101895.38;5283750;28;20034;-75
2022/07/04 12:18:24;;;;;;;5.43;2.10;;;;;;;27.18;36.03;101890.16;5285496;28;20068;-74
2022/07/04 12:21:11;;;;;;;4.93;2.30;;;;;;;26.92;36.66;101885.94;5286198;28;20024;-75
2022/07/04 12:23:51;;;;;;;7.65;2.40;;;;;;;27.15;37.01;101891.38;5286960;28;20028;-75
2022/07/04 12:26:22;;;;;;;5.18;1.80;;;;;;;26.68;37.23;101891.25;5285178;28;20474;-76
2022/07/04 12:28:54;;;;;;;4.97;1.92;;;;;;;26.56;36.61;101888.13;5276024;28;20110;-73
2022/07/04 12:31:57;;;;;;;7.78;2.63;;;;;;;26.79;36.81;101898.06;5273364;28;20031;-74
2022/07/04 12:34:29;;;;;;;4.22;2.15;;;;;;;26.10;37.76;101883.34;5240177;28;20127;-74
2022/07/04 12:37:08;;;;;;;8.45;2.13;;;;;;;26.14;37.05;101894.56;5268718;28;20035;-74
2022/07/04 12:39:43;;;;;;;4.13;1.98;;;;;;;25.81;37.46;101885.56;5273203;28;20048;-74
2022/07/04 12:42:17;;;;;;;4.50;2.00;;;;;;;25.62;37.44;101887.53;5272509;28;20549;-73
2022/07/04 12:44:52;;;;;;;8.65;1.77;;;;;;;25.89;37.11;101881.19;5272626;28;20055;-74
2022/07/04 12:47:24;;;;;;;5.97;2.13;;;;;;;26.02;37.65;101878.84;5270081;28;20016;-74
2022/07/04 12:49:55;;;;;;;4.57;2.03;;;;;;;26.46;35.70;101879.44;5269756;28;20036;-74
2022/07/04 12:52:28;;;;;;;4.47;2.10;;;;;;;26.25;36.31;101871.91;5273057;28;20103;-73
2022/07/04 12:55:06;;;;;;;5.45;1.55;;;;;;;26.46;35.07;101876.75;5272848;28;20024;-74
2022/07/04 12:57:38;;;;;;;4.05;1.63;;;;;;;26.63;35.29;101863.25;5270820;28;20013;-75
2022/07/04 13:00:10;;;;;;;5.82;1.70;;;;;;;26.69;35.14;101854.47;5271194;28;20032;-74
2022/07/04 13:02:41;;;;;;;4.60;2.03;;;;;;;26.44;35.32;101835.78;5273608;28;20036;-75
2022/07/04 13:05:13;;;;;;;4.68;1.75;;;;;;;26.48;34.69;101823.69;5270704;28;20020;-76
2022/07/04 13:07:46;;;;;;;5.43;1.80;;;;;;;26.71;36.50;101836.31;5269966;28;20027;-75
2022/07/04 13:10:18;;;;;;;6.82;2.03;;;;;;;26.54;37.21;101863.28;5272808;28;20021;-76
2022/07/04 13:12:49;;;;;;;5.63;1.73;;;;;;;26.33;37.49;101839.66;5272719;28;20036;-76
2022/07/04 13:15:21;;;;;;;3.08;1.67;;;;;;;26.18;37.29;101861.03;5271537;28;20016;-76
2022/07/04 13:17:52;;;;;;;3.13;1.70;;;;;;;26.35;38.09;101875.25;5268625;28;20036;-74
2022/07/04 13:20:24;;;;;;;4.13;1.73;;;;;;;26.66;38.02;101868.25;5270249;28;20074;-74
2022/07/04 13:22:55;;;;;;;5.75;1.65;;;;;;;26.66;37.47;101860.19;5271443;28;20024;-74
2022/07/04 13:25:26;;;;;;;7.22;2.22;;;;;;;26.61;37.45;101846.44;5272275;28;20472;-74
2022/07/04 13:27:58;;;;;;;4.13;1.83;;;;;;;26.52;37.19;101864.44;5269199;28;20103;-73
2022/07/04 13:30:29;;;;;;;4.93;1.60;;;;;;;26.93;37.17;101866.94;5271438;28;20020;-74
2022/07/04 13:33:00;;;;;;;5.25;2.08;;;;;;;27.04;36.78;101865.72;5272383;28;20028;-74
2022/07/04 13:35:32;;;;;;;7.38;2.40;;;;;;;27.02;35.91;101865.03;5270585;28;20021;-73
2022/07/04 13:38:03;;;;;;;4.07;1.65;;;;;;;26.90;37.55;101861.91;5269326;28;20536;-73
2022/07/04 13:40:35;;;;;;;6.70;1.52;;;;;;;26.95;37.42;101861.38;5269273;28;20036;-73
2022/07/04 13:43:13;;;;;;;4.07;1.77;;;;;;;27.17;36.18;101862.47;5272125;28;20543;-74
2022/07/04 13:45:48;;;;;;;2.60;1.30;;;;;;;27.15;36.54;101866.34;5272504;28;20396;-74
2022/07/04 13:48:19;;;;;;;4.53;1.70;;;;;;;26.88;35.82;101860.44;5269813;28;20021;-74
2022/07/04 13:50:51;;;;;;;4.38;1.50;;;;;;;26.72;37.02;101872.94;5270819;28;20519;-74
2022/07/04 13:56:54;;;;;;;5.22;1.33;;;;;;;27.09;35.60;101859.81;5268449;28;20024;-74
2022/07/04 13:59:26;;;;;;;3.97;1.33;;;;;;;27.09;36.81;101859.00;5272601;28;20028;-73
2022/07/04 14:01:57;;;;;;;4.80;1.48;;;;;;;26.94;36.75;101849.81;5270351;28;20052;-73
2022/07/04 14:04:28;;;;;;;6.13;1.52;;;;;;;26.96;36.39;101849.63;5278109;28;20035;-74
2022/07/04 14:07:00;;;;;;;3.10;1.30;;;;;;;26.98;36.40;101858.38;5268962;28;20095;-74
2022/07/04 14:09:32;;;;;;;5.97;1.60;;;;;;;27.16;35.16;101850.03;5286960;28;20387;-74
2022/07/04 14:12:03;;;;;;;7.35;1.50;;;;;;;26.90;36.38;101847.63;5273390;28;20035;-74
2022/07/04 14:14:35;;;;;;;5.75;1.80;;;;;;;27.09;36.06;101864.38;5271499;28;20411;-74
2022/07/04 14:17:07;;;;;;;5.88;1.83;;;;;;;27.24;34.84;101862.59;5268038;28;20072;-73
2022/07/04 14:19:38;;;;;;;3.30;1.33;;;;;;;27.22;35.37;101858.38;5271125;28;20028;-73
2022/07/04 14:22:10;;;;;;;4.75;1.67;;;;;;;27.12;35.22;101862.16;5271359;28;20020;-73
2022/07/04 14:24:41;;;;;;;3.88;1.55;;;;;;;27.06;35.46;101857.50;5272560;28;20067;-73
2022/07/04 14:27:13;;;;;;;5.32;1.25;;;;;;;26.91;37.12;101857.38;5270770;28;20024;-74
2022/07/04 14:29:44;;;;;;;6.25;1.45;;;;;;;27.10;35.75;101861.50;5270412;28;20097;-74
2022/07/04 14:32:15;;;;;;;4.95;1.58;;;;;;;26.90;35.13;101853.00;5271520;28;20115;-72
2022/07/04 14:34:47;;;;;;;3.83;1.52;;;;;;;26.86;35.67;101855.25;5271840;28;20497;-73
2022/07/04 14:37:19;;;;;;;7.97;2.08;;;;;;;26.68;36.20;101852.81;5263075;28;20117;-73
2022/07/04 14:39:51;;;;;;;5.13;1.55;;;;;;;26.66;36.33;101852.13;5270706;28;20099;-73
2022/07/04 14:42:22;;;;;;;5.85;1.73;;;;;;;26.38;37.64;101856.13;5271053;28;20029;-72